createdAt,value
2022-11-02T00:00:17.331Z,3.40
2022-11-02T00:02:45.747Z,3.63
2022-11-02T00:05:14.769Z,4.18
2022-11-02T00:07:43.480Z,4.18
2022-11-02T00:10:11.921Z,4.13
2022-11-02T00:12:40.279Z,3.60
2022-11-02T00:15:11.420Z,3.33
2022-11-02T00:17:40.673Z,3.75
2022-11-02T00:20:09.817Z,2.15
2022-11-02T00:22:38.843Z,1.77
2022-11-02T00:25:08.732Z,1.98
2022-11-02T00:27:37.126Z,2.30
2022-11-02T00:30:06.008Z,2.58
2022-11-02T00:32:35.813Z,2.95
2022-11-02T00:35:04.163Z,2.80
2022-11-02T00:40:01.842Z,2.70
2022-11-02T00:42:30.172Z,2.50
2022-11-02T00:44:58.565Z,2.80
2022-11-02T00:47:26.850Z,3.13
2022-11-02T00:49:56.533Z,2.85
2022-11-02T00:52:24.919Z,3.70
2022-11-02T00:54:53.282Z,3.58
2022-11-02T00:57:21.663Z,3.78
2022-11-02T00:59:50.110Z,3.22
2022-11-02T01:02:18.790Z,3.58
2022-11-02T01:04:47.210Z,3.78
2022-11-02T01:07:16.889Z,4.20
2022-11-02T01:09:45.207Z,4.20
2022-11-02T01:12:13.594Z,4.05
2022-11-02T01:14:41.953Z,4.45
2022-11-02T01:17:10.362Z,4.68
2022-11-02T01:19:38.684Z,4.50
2022-11-02T01:22:07.312Z,4.03
2022-11-02T01:24:37.056Z,4.55
2022-11-02T01:27:05.328Z,4.10
2022-11-02T01:29:33.623Z,3.65
2022-11-02T01:32:01.948Z,4.47
2022-11-02T01:34:30.331Z,3.60
2022-11-02T01:36:59.058Z,4.07
2022-11-02T01:39:27.369Z,3.60
2022-11-02T01:41:57.120Z,3.50
2022-11-02T01:44:30.745Z,3.60
2022-11-02T01:47:03.416Z,3.38
2022-11-02T01:49:35.566Z,3.63
2022-11-02T01:52:08.295Z,3.88
2022-11-02T01:54:40.475Z,4.20
2022-11-02T01:57:12.214Z,4.65
2022-11-02T01:59:44.110Z,4.22
2022-11-02T02:02:17.131Z,4.15
2022-11-02T02:04:46.946Z,3.90
2022-11-02T02:07:16.141Z,4.33
2022-11-02T02:09:48.690Z,3.90
2022-11-02T02:12:21.639Z,4.03
2022-11-02T02:14:50.156Z,3.58
2022-11-02T02:17:28.298Z,3.10
2022-11-02T02:19:59.643Z,3.83
2022-11-02T02:22:48.405Z,3.50
2022-11-02T02:25:27.576Z,4.10
2022-11-02T02:28:08.057Z,3.70
2022-11-02T02:30:40.041Z,4.28
2022-11-02T02:33:12.766Z,3.60
2022-11-02T02:35:44.263Z,4.13
2022-11-02T02:38:15.856Z,3.95
2022-11-02T02:40:49.404Z,4.47
2022-11-02T02:43:22.027Z,3.95
2022-11-02T02:45:55.018Z,4.50
2022-11-02T02:48:25.058Z,4.10
2022-11-02T02:50:56.163Z,4.82
2022-11-02T02:53:30.615Z,5.00
2022-11-02T02:56:00.595Z,4.70
2022-11-02T02:58:33.781Z,4.82
2022-11-02T03:01:02.066Z,3.95
2022-11-02T03:03:31.238Z,4.97
2022-11-02T03:06:06.011Z,4.38
2022-11-02T03:08:37.089Z,4.80
2022-11-02T03:11:11.054Z,4.38
2022-11-02T03:13:48.855Z,4.22
2022-11-02T03:16:29.820Z,4.72
2022-11-02T03:19:02.637Z,4.80
2022-11-02T03:21:37.520Z,4.55
2022-11-02T03:24:09.990Z,4.63
2022-11-02T03:26:44.155Z,4.18
2022-11-02T03:29:15.785Z,4.05
2022-11-02T03:31:47.709Z,4.72
2022-11-02T03:34:21.172Z,4.72
2022-11-02T03:36:53.395Z,4.15
2022-11-02T03:39:25.389Z,4.47
2022-11-02T03:41:54.495Z,4.32
2022-11-02T03:44:25.862Z,3.65
2022-11-02T03:47:00.055Z,4.60
2022-11-02T03:49:29.601Z,3.78
2022-11-02T03:52:00.775Z,4.28
2022-11-02T03:54:38.693Z,4.10
2022-11-02T03:57:10.415Z,4.60
2022-11-02T03:59:40.051Z,4.40
2022-11-02T04:02:11.370Z,4.60
2022-11-02T04:04:49.588Z,4.32
2022-11-02T04:07:21.185Z,4.10
2022-11-02T04:09:49.426Z,4.20
2022-11-02T04:12:35.445Z,4.40
2022-11-02T04:15:05.873Z,4.47
2022-11-02T04:17:51.688Z,4.40
2022-11-02T04:20:19.939Z,4.55
2022-11-02T04:23:05.835Z,4.50
2022-11-02T04:25:34.083Z,4.10
2022-11-02T04:28:08.339Z,4.15
2022-11-02T04:30:38.031Z,4.25
2022-11-02T04:33:24.090Z,4.33
2022-11-02T04:35:52.357Z,3.97
2022-11-02T04:38:38.346Z,4.53
2022-11-02T04:41:24.281Z,4.63
2022-11-02T04:43:52.690Z,4.65
2022-11-02T04:46:23.782Z,4.47
2022-11-02T04:48:52.460Z,4.10
2022-11-02T04:51:21.612Z,4.65
2022-11-02T04:53:50.043Z,4.32
2022-11-02T04:56:18.352Z,4.63
2022-11-02T04:58:49.692Z,4.25
2022-11-02T05:01:18.161Z,4.40
2022-11-02T05:03:49.722Z,4.18
2022-11-02T05:06:18.354Z,4.13
2022-11-02T05:08:46.942Z,4.15
2022-11-02T05:11:15.655Z,4.32
2022-11-02T05:13:44.651Z,4.45
2022-11-02T05:16:16.918Z,4.50
2022-11-02T05:18:45.328Z,3.97
2022-11-02T05:21:14.996Z,4.18
2022-11-02T05:26:28.918Z,4.13
2022-11-02T05:28:57.265Z,4.00
2022-11-02T05:31:25.684Z,4.20
2022-11-02T05:33:53.932Z,4.40
2022-11-02T05:36:23.819Z,4.57
2022-11-02T05:38:53.925Z,4.50
2022-11-02T05:41:22.322Z,5.18
2022-11-02T05:43:50.618Z,5.00
2022-11-02T05:46:18.928Z,4.82
2022-11-02T05:48:47.247Z,4.38
2022-11-02T05:51:15.631Z,4.60
2022-11-02T05:53:45.228Z,4.50
2022-11-02T05:56:14.631Z,4.78
2022-11-02T05:58:43.022Z,4.90
2022-11-02T06:01:12.167Z,3.60
2022-11-02T06:03:40.578Z,4.18
2022-11-02T06:06:12.395Z,3.88
2022-11-02T06:08:41.150Z,4.43
2022-11-02T06:11:12.431Z,4.70
2022-11-02T06:13:41.380Z,4.40
2022-11-02T06:16:11.448Z,4.00
2022-11-02T06:18:40.333Z,4.25
2022-11-02T06:21:08.809Z,4.00
2022-11-02T06:23:37.744Z,4.72
2022-11-02T06:26:06.196Z,4.20
2022-11-02T06:28:35.854Z,4.00
2022-11-02T06:31:04.676Z,4.10
2022-11-02T06:33:32.922Z,4.20
2022-11-02T06:36:01.209Z,4.13
2022-11-02T06:38:29.505Z,4.53
2022-11-02T06:40:58.474Z,3.92
2022-11-02T06:43:27.032Z,3.90
2022-11-02T06:45:57.581Z,3.88
2022-11-02T06:51:01.485Z,4.00
2022-11-02T06:53:29.827Z,4.20
2022-11-02T06:55:59.270Z,4.15
2022-11-02T06:58:28.220Z,4.45
2022-11-02T07:01:00.501Z,3.88
2022-11-02T07:03:29.000Z,4.28
2022-11-02T07:05:57.531Z,4.45
2022-11-02T07:08:26.247Z,4.00
2022-11-02T07:10:54.874Z,4.47
2022-11-02T07:13:23.328Z,4.43
2022-11-02T07:15:53.771Z,4.47
2022-11-02T07:18:23.643Z,4.45
2022-11-02T07:20:52.182Z,4.60
2022-11-02T07:23:23.833Z,5.15
2022-11-02T07:25:52.516Z,5.40
2022-11-02T07:28:21.339Z,5.50
2022-11-02T07:30:50.159Z,4.93
2022-11-02T07:33:18.474Z,5.70
2022-11-02T07:35:48.147Z,6.03
2022-11-02T07:38:16.436Z,4.90
2022-11-02T07:40:44.769Z,5.30
2022-11-02T07:43:13.049Z,7.18
2022-11-02T07:45:41.443Z,6.38
2022-11-02T07:48:09.760Z,4.93
2022-11-02T07:50:38.067Z,5.30
2022-11-02T07:53:07.898Z,4.63
2022-11-02T07:55:36.482Z,4.68
2022-11-02T07:58:05.874Z,4.47
2022-11-02T08:00:37.234Z,4.30
2022-11-02T08:03:07.032Z,5.00
2022-11-02T08:05:37.521Z,4.70
2022-11-02T08:08:09.134Z,4.20
2022-11-02T08:10:40.342Z,4.55
2022-11-02T08:13:09.403Z,4.70
2022-11-02T08:15:38.043Z,4.18
2022-11-02T08:18:08.828Z,4.13
2022-11-02T08:20:37.717Z,4.65
2022-11-02T08:23:07.991Z,4.43
2022-11-02T08:25:36.481Z,4.32
2022-11-02T08:28:05.756Z,4.55
2022-11-02T08:30:34.817Z,4.15
2022-11-02T08:33:04.891Z,3.75
2022-11-02T08:35:33.411Z,3.10
2022-11-02T08:38:02.395Z,3.30
2022-11-02T08:40:32.449Z,3.40
2022-11-02T08:46:13.707Z,3.42
2022-11-02T08:48:35.714Z,3.65
2022-11-02T08:51:05.710Z,4.07
2022-11-02T08:53:34.043Z,3.47
2022-11-02T08:56:03.824Z,3.55
2022-11-02T08:58:32.160Z,3.13
2022-11-02T09:01:00.529Z,3.00
2022-11-02T09:03:28.842Z,3.13
2022-11-02T09:06:01.977Z,2.88
2022-11-02T09:08:30.906Z,2.92
2022-11-02T09:11:01.172Z,2.70
2022-11-02T09:13:31.176Z,2.88
2022-11-02T09:16:00.425Z,3.10
2022-11-02T09:18:29.106Z,2.70
2022-11-02T09:20:57.574Z,2.63
2022-11-02T09:23:25.914Z,2.70
2022-11-02T09:25:54.189Z,2.50
2022-11-02T09:28:22.417Z,2.30
2022-11-02T09:30:52.071Z,1.90
2022-11-02T09:33:20.444Z,2.73
2022-11-02T09:35:50.038Z,2.40
2022-11-02T09:38:19.192Z,2.53
2022-11-02T09:40:51.874Z,2.20
2022-11-02T09:43:28.175Z,2.20
2022-11-02T09:46:02.445Z,1.98
2022-11-02T09:48:34.135Z,2.17
2022-11-02T09:51:06.700Z,2.17
2022-11-02T09:53:42.369Z,2.47
2022-11-02T09:56:12.022Z,2.25
2022-11-02T09:58:41.686Z,2.40
2022-11-02T10:01:24.387Z,2.20
2022-11-02T10:04:21.450Z,1.88
2022-11-02T10:06:56.575Z,1.60
2022-11-02T10:09:28.053Z,1.67
2022-11-02T10:12:00.985Z,1.55
2022-11-02T10:14:33.100Z,1.77
2022-11-02T10:17:07.602Z,2.15
2022-11-02T10:19:39.031Z,2.10
2022-11-02T10:22:09.903Z,1.70
2022-11-02T10:24:42.673Z,1.60
2022-11-02T10:27:16.489Z,1.77
2022-11-02T10:29:47.998Z,1.90
2022-11-02T10:32:18.140Z,1.35
2022-11-02T10:34:58.763Z,1.00
2022-11-02T10:37:45.751Z,1.58
2022-11-02T10:40:25.572Z,1.50
2022-11-02T10:43:04.581Z,1.50
2022-11-02T10:46:08.877Z,1.48
2022-11-02T10:48:44.280Z,1.50
2022-11-02T10:51:13.413Z,1.58
2022-11-02T10:53:43.776Z,1.40
2022-11-02T10:56:17.316Z,1.48
2022-11-02T10:58:50.977Z,1.40
2022-11-02T11:01:19.327Z,1.17
2022-11-02T11:04:00.288Z,1.45
2022-11-02T11:06:31.235Z,1.30
2022-11-02T11:09:05.672Z,1.38
2022-11-02T11:11:35.626Z,1.38
2022-11-02T11:22:25.367Z,1.40
2022-11-02T11:24:53.896Z,1.33
2022-11-02T11:27:22.518Z,0.98
2022-11-02T11:29:53.920Z,0.70
2022-11-02T11:32:29.575Z,0.80
2022-11-02T11:35:02.681Z,1.13
2022-11-02T11:37:31.413Z,1.13
2022-11-02T11:40:01.914Z,1.35
2022-11-02T11:45:02.045Z,1.00
2022-11-02T11:47:33.484Z,1.10
2022-11-02T11:50:15.395Z,0.95
2022-11-02T11:52:46.340Z,1.00
2022-11-02T11:55:23.053Z,1.02
2022-11-02T11:58:07.128Z,1.05
2022-11-02T12:00:35.947Z,1.13
2022-11-02T12:03:06.530Z,0.95
2022-11-02T12:05:43.690Z,0.85
2022-11-02T12:08:20.866Z,1.00
2022-11-02T12:11:03.277Z,1.00
2022-11-02T12:13:49.992Z,0.80
2022-11-02T12:16:24.496Z,0.98
2022-11-02T12:19:07.792Z,0.90
2022-11-02T12:21:53.604Z,1.40
2022-11-02T12:24:41.348Z,0.70
2022-11-02T12:27:20.368Z,0.70
2022-11-02T12:30:04.142Z,1.10
2022-11-02T12:33:03.940Z,0.95
2022-11-02T12:35:51.932Z,0.63
2022-11-02T12:38:35.962Z,0.60
2022-11-02T12:41:06.042Z,0.93
2022-11-02T12:43:40.132Z,1.10
2022-11-02T12:46:27.305Z,0.60
2022-11-02T12:49:07.080Z,0.85
2022-11-02T12:51:39.556Z,0.82
2022-11-02T12:54:12.058Z,0.80
2022-11-02T12:56:45.958Z,1.27
2022-11-02T12:59:17.566Z,0.85
2022-11-02T13:01:47.052Z,0.65
2022-11-02T13:04:23.291Z,0.80
2022-11-02T13:06:59.744Z,0.90
2022-11-02T13:09:34.134Z,0.85
2022-11-02T13:12:04.789Z,0.93
2022-11-02T13:14:39.447Z,0.65
2022-11-02T13:17:15.789Z,0.70
2022-11-02T13:19:48.259Z,0.70
2022-11-02T13:22:17.914Z,0.90
2022-11-02T13:24:49.885Z,0.80
2022-11-02T13:27:41.742Z,0.90
2022-11-02T13:30:15.477Z,0.90
2022-11-02T13:35:34.752Z,1.20
2022-11-02T13:38:05.545Z,0.60
2022-11-02T13:40:40.020Z,0.57
2022-11-02T13:43:33.709Z,0.70
2022-11-02T13:46:16.500Z,0.52
2022-11-02T13:48:52.691Z,1.20
2022-11-02T13:51:26.762Z,0.65
2022-11-02T13:53:57.371Z,0.70
2022-11-02T13:56:28.708Z,0.80
2022-11-02T13:59:00.674Z,0.75
2022-11-02T14:01:31.593Z,0.73
2022-11-02T14:04:04.613Z,0.90
2022-11-02T14:06:35.136Z,0.80
2022-11-02T14:11:46.507Z,0.50
2022-11-02T14:14:25.478Z,0.70
2022-11-02T14:17:12.268Z,0.95
2022-11-02T14:20:24.603Z,0.93
2022-11-02T14:23:26.351Z,0.65
2022-11-02T14:25:55.753Z,1.00
2022-11-02T14:28:36.015Z,1.00
2022-11-02T14:31:34.452Z,0.93
2022-11-02T14:34:30.504Z,0.95
2022-11-02T14:37:11.467Z,0.90
2022-11-02T14:39:46.578Z,0.73
2022-11-02T14:42:34.500Z,1.60
2022-11-02T14:45:29.330Z,0.75
2022-11-02T14:47:59.382Z,0.75
2022-11-02T14:50:28.176Z,1.00
2022-11-02T14:53:03.638Z,1.10
2022-11-02T14:55:33.629Z,1.20
2022-11-02T14:58:10.354Z,0.80
2022-11-02T15:00:56.937Z,1.17
2022-11-02T15:03:35.889Z,1.40
2022-11-02T15:06:06.166Z,0.90
2022-11-02T15:08:36.086Z,1.05
2022-11-02T15:14:53.555Z,1.20
2022-11-02T15:17:54.962Z,1.10
2022-11-02T15:20:31.456Z,1.00
2022-11-02T15:23:31.808Z,0.90
2022-11-02T15:26:01.239Z,1.00
2022-11-02T15:28:30.922Z,0.80
2022-11-02T15:31:01.383Z,13.73
2022-11-02T15:33:36.835Z,2.20
2022-11-02T15:36:07.734Z,1.63
2022-11-02T15:38:39.978Z,18.83
2022-11-02T15:41:21.328Z,55.03
2022-11-02T15:44:04.490Z,23.60
2022-11-02T15:46:44.566Z,5.68
2022-11-02T15:49:24.539Z,6.85
2022-11-02T15:51:57.703Z,8.57
2022-11-02T15:54:45.941Z,5.57
2022-11-02T15:57:20.720Z,5.70
2022-11-02T15:59:59.661Z,3.78
2022-11-02T16:02:28.861Z,2.97
2022-11-02T16:05:00.358Z,5.65
2022-11-02T16:07:38.432Z,5.50
2022-11-02T16:10:26.706Z,5.93
2022-11-02T16:12:59.556Z,7.03
2022-11-02T16:15:28.528Z,5.10
2022-11-02T16:17:58.453Z,6.82
2022-11-02T16:20:29.997Z,4.05
2022-11-02T16:22:59.906Z,2.42
2022-11-02T16:25:36.853Z,2.33
2022-11-02T16:28:18.974Z,2.38
2022-11-02T16:31:00.182Z,2.60
2022-11-02T16:33:30.618Z,1.90
2022-11-02T16:36:00.882Z,1.25
2022-11-02T16:38:29.824Z,1.85
2022-11-02T16:40:58.180Z,1.60
2022-11-02T16:43:27.388Z,1.25
2022-11-02T16:46:00.968Z,1.70
2022-11-02T16:48:30.773Z,2.90
2022-11-02T16:51:10.363Z,2.42
2022-11-02T16:53:41.997Z,3.17
2022-11-02T16:56:32.250Z,2.85
2022-11-02T16:59:02.509Z,3.08
2022-11-02T17:01:37.413Z,3.80
2022-11-02T17:04:16.624Z,3.53
2022-11-02T17:06:47.120Z,2.95
2022-11-02T17:09:25.022Z,2.90
2022-11-02T17:11:54.777Z,3.25
2022-11-02T17:14:23.771Z,2.60
2022-11-02T17:17:00.052Z,2.80
2022-11-02T17:19:46.823Z,2.95
2022-11-02T17:22:25.084Z,2.83
2022-11-02T17:25:13.688Z,2.10
2022-11-02T17:27:42.789Z,4.10
2022-11-02T17:30:44.663Z,8.63
2022-11-02T17:33:24.676Z,16.38
2022-11-02T17:35:54.561Z,3.30
2022-11-02T17:38:26.660Z,2.78
2022-11-02T17:40:55.142Z,2.83
2022-11-02T17:43:23.679Z,3.13
2022-11-02T17:45:56.408Z,5.80
2022-11-02T17:48:25.389Z,2.80
2022-11-02T17:50:54.573Z,3.53
2022-11-02T17:53:24.896Z,4.30
2022-11-02T17:55:55.734Z,5.97
2022-11-02T17:58:24.090Z,5.55
2022-11-02T18:00:54.045Z,5.35
2022-11-02T18:03:25.598Z,4.35
2022-11-02T18:05:59.907Z,4.40
2022-11-02T18:08:30.201Z,3.42
2022-11-02T18:10:58.623Z,3.92
2022-11-02T18:13:26.909Z,2.60
2022-11-02T18:15:55.219Z,2.78
2022-11-02T18:18:23.671Z,3.92
2022-11-02T18:20:51.946Z,3.72
2022-11-02T18:23:20.564Z,3.75
2022-11-02T18:25:52.770Z,3.85
2022-11-02T18:28:23.628Z,4.00
2022-11-02T18:30:51.927Z,3.53
2022-11-02T18:33:20.183Z,3.03
2022-11-02T18:35:48.485Z,2.83
2022-11-02T18:38:16.940Z,2.80
2022-11-02T18:40:45.240Z,2.80
2022-11-02T18:43:14.899Z,3.00
2022-11-02T18:45:43.192Z,3.20
2022-11-02T18:48:11.470Z,3.70
2022-11-02T18:50:39.794Z,4.05
2022-11-02T18:53:08.065Z,4.45
2022-11-02T18:55:36.401Z,4.70
2022-11-02T18:58:04.960Z,4.38
2022-11-02T19:00:34.884Z,4.38
2022-11-02T19:03:03.283Z,7.10
2022-11-02T19:05:49.154Z,10.70
2022-11-02T19:08:35.080Z,9.38
2022-11-02T19:11:03.477Z,9.65
2022-11-02T19:13:31.769Z,8.85
2022-11-02T19:16:01.417Z,6.78
2022-11-02T19:18:29.755Z,5.38
2022-11-02T19:20:57.982Z,6.40
2022-11-02T19:23:26.548Z,4.35
2022-11-02T19:25:54.878Z,7.13
2022-11-02T19:28:23.171Z,6.25
2022-11-02T19:30:51.444Z,6.03
2022-11-02T19:33:21.104Z,7.20
2022-11-02T19:35:56.400Z,6.55
2022-11-02T19:38:24.719Z,7.25
2022-11-02T19:41:01.423Z,6.65
2022-11-02T19:43:36.065Z,9.75
2022-11-02T19:46:05.762Z,12.32
2022-11-02T19:48:36.605Z,5.33
2022-11-02T19:51:08.828Z,4.95
2022-11-02T19:53:37.795Z,5.38
2022-11-02T19:56:10.232Z,7.45
2022-11-02T19:58:39.402Z,12.02
2022-11-02T20:01:09.120Z,6.20
2022-11-02T20:03:39.760Z,12.27
2022-11-02T20:08:37.224Z,10.23
2022-11-02T20:11:06.690Z,12.27
2022-11-02T20:13:36.549Z,11.23
2022-11-02T20:16:06.339Z,11.18
2022-11-02T20:18:35.428Z,9.90
2022-11-02T20:21:06.159Z,9.15
2022-11-02T20:23:35.624Z,11.00
2022-11-02T20:26:05.137Z,10.75
2022-11-02T20:28:33.659Z,4.13
2022-11-02T20:31:01.925Z,5.35
2022-11-02T20:33:30.290Z,3.55
2022-11-02T20:35:58.590Z,3.50
2022-11-02T20:38:28.338Z,3.10
2022-11-02T20:40:57.796Z,3.70
2022-11-02T20:43:26.604Z,5.25
2022-11-02T20:48:51.116Z,5.97
2022-11-02T20:51:20.652Z,6.07
2022-11-02T20:53:50.501Z,6.65
2022-11-02T20:56:19.049Z,5.93
2022-11-02T20:58:51.370Z,6.65
2022-11-02T21:01:23.865Z,6.90
2022-11-02T21:03:52.304Z,7.03
2022-11-02T21:06:20.601Z,7.22
2022-11-02T21:08:50.291Z,7.35
2022-11-02T21:11:36.410Z,5.60
2022-11-02T21:14:04.686Z,5.47
2022-11-02T21:16:33.047Z,4.97
2022-11-02T21:19:01.439Z,5.13
2022-11-02T21:21:29.729Z,5.70
2022-11-02T21:23:59.396Z,5.40
2022-11-02T21:26:27.775Z,5.78
2022-11-02T21:28:56.034Z,3.88
2022-11-02T21:31:24.346Z,5.10
2022-11-02T21:33:52.730Z,4.88
2022-11-02T21:36:20.977Z,4.60
2022-11-02T21:38:49.571Z,4.35
2022-11-02T21:41:21.141Z,4.13
2022-11-02T21:43:51.963Z,4.07
2022-11-02T21:46:20.792Z,4.43
2022-11-02T21:48:49.402Z,3.40
2022-11-02T21:51:18.922Z,3.33
2022-11-02T21:53:48.543Z,3.10
2022-11-02T21:56:18.436Z,3.90
2022-11-02T21:58:48.742Z,3.60
2022-11-02T22:01:36.286Z,3.45
2022-11-02T22:04:05.424Z,3.90
2022-11-02T22:06:33.950Z,4.20
2022-11-02T22:09:02.811Z,3.33
2022-11-02T22:11:31.203Z,3.72
2022-11-02T22:14:01.628Z,3.25
2022-11-02T22:16:32.050Z,3.20
2022-11-02T22:19:02.088Z,3.58
2022-11-02T22:21:31.496Z,4.03
2022-11-02T22:24:00.131Z,3.40
2022-11-02T22:26:29.919Z,3.80
2022-11-02T22:29:00.924Z,4.32
2022-11-02T22:31:30.541Z,4.65
2022-11-02T22:34:00.293Z,4.53
2022-11-02T22:36:30.323Z,4.60
2022-11-02T22:38:59.005Z,4.93
2022-11-02T22:41:28.638Z,4.78
2022-11-02T22:43:58.538Z,4.15
2022-11-02T22:46:28.896Z,3.95
2022-11-02T22:48:58.529Z,3.35
2022-11-02T22:51:29.033Z,4.07
2022-11-02T22:53:57.428Z,2.92
2022-11-02T22:56:25.722Z,3.95
2022-11-02T22:58:54.049Z,3.38
2022-11-02T23:01:24.167Z,2.83
2022-11-02T23:03:53.936Z,3.60
2022-11-02T23:06:23.321Z,3.73
2022-11-02T23:08:53.038Z,3.05
2022-11-02T23:11:22.299Z,3.77
2022-11-02T23:13:52.921Z,4.97
2022-11-02T23:19:20.325Z,3.30
2022-11-02T23:22:09.894Z,3.35
2022-11-02T23:24:55.407Z,3.17
2022-11-02T23:27:23.669Z,3.58
2022-11-02T23:30:09.668Z,4.30
2022-11-02T23:32:38.672Z,4.47
2022-11-02T23:35:26.339Z,4.00
2022-11-02T23:38:02.624Z,4.00
2022-11-02T23:40:30.908Z,4.18
2022-11-02T23:42:59.393Z,4.18
2022-11-02T23:45:27.676Z,4.40
2022-11-02T23:48:00.695Z,5.63
2022-11-02T23:50:49.883Z,6.28
2022-11-02T23:53:37.329Z,7.82
2022-11-02T23:56:23.759Z,5.85
2022-11-02T23:59:06.556Z,5.13
